Time;durP1;ratioP1;P1;durP2;ratioP2;P2;SDS_P1;SDS_P2;PMS_P1;PMS_P2;Temp;Humidity;BMP_temperature;BMP_pressure;BME280_temperature;BME280_humidity;BME280_pressure;Samples;Min_cycle;Max_cycle;Signal;HPM_P1;HPM_P2
2022/12/31 00:01:14;;;;;;;0.30;0.28;;;16.20;77.10;;;;;;5009231;28;20683;-55
2022/12/31 00:03:42;;;;;;;0.40;0.20;;;16.20;77.40;;;;;;5008369;28;20046;-55
2022/12/31 00:06:18;;;;;;;0.38;0.38;;;16.10;77.40;;;;;;5008151;28;20038;-55
2022/12/31 00:08:50;;;;;;;0.63;0.22;;;16.10;77.90;;;;;;5005455;28;20565;-52
2022/12/31 00:11:18;;;;;;;0.50;0.30;;;16.10;77.70;;;;;;5008709;28;20030;-57
2022/12/31 00:13:47;;;;;;;0.35;0.30;;;16.10;77.80;;;;;;5012529;28;20064;-55
2022/12/31 00:16:27;;;;;;;0.47;0.30;;;16.10;78.00;;;;;;5010369;28;20120;-54
2022/12/31 00:18:58;;;;;;;0.70;0.50;;;16.10;78.20;;;;;;5008373;28;20085;-57
2022/12/31 00:21:31;;;;;;;1.23;0.28;;;16.10;78.30;;;;;;5013113;28;20113;-55
2022/12/31 00:24:02;;;;;;;0.63;0.30;;;16.10;78.40;;;;;;5010907;28;20052;-53
2022/12/31 00:26:33;;;;;;;0.35;0.30;;;16.10;78.40;;;;;;5007071;28;20044;-52
2022/12/31 00:29:02;;;;;;;0.35;0.20;;;16.10;78.60;;;;;;5006571;28;20461;-53
2022/12/31 00:31:32;;;;;;;0.45;0.20;;;16.10;78.40;;;;;;5005502;28;20113;-55
2022/12/31 00:33:59;;;;;;;0.30;0.20;;;16.10;78.60;;;;;;5013475;28;20052;-54
2022/12/31 00:36:29;;;;;;;0.30;0.20;;;16.10;78.60;;;;;;5007198;28;20042;-55
2022/12/31 00:38:57;;;;;;;0.30;0.30;;;16.10;78.60;;;;;;5012258;28;20238;-52
2022/12/31 00:41:27;;;;;;;1.55;0.30;;;16.10;78.70;;;;;;5013050;28;20056;-54
2022/12/31 00:43:57;;;;;;;0.73;0.20;;;16.10;78.60;;;;;;5012329;28;20046;-56
2022/12/31 00:46:25;;;;;;;0.15;0.15;;;16.10;78.60;;;;;;5002878;28;20664;-55
2022/12/31 00:48:54;;;;;;;0.20;0.20;;;16.20;78.70;;;;;;5013387;28;20048;-53
2022/12/31 00:51:26;;;;;;;0.30;0.30;;;16.20;78.60;;;;;;5012283;28;20087;-52
2022/12/31 00:53:54;;;;;;;1.10;0.28;;;16.20;78.70;;;;;;5012435;28;20419;-54
2022/12/31 00:56:29;;;;;;;0.40;0.40;;;16.30;78.60;;;;;;5004721;28;20049;-54
2022/12/31 00:59:06;;;;;;;0.25;0.25;;;16.30;78.70;;;;;;5011920;28;20128;-52
2022/12/31 01:01:35;;;;;;;0.35;0.20;;;16.30;78.60;;;;;;5002864;28;20061;-55
2022/12/31 01:04:15;;;;;;;0.30;0.30;;;16.30;78.60;;;;;;5012176;28;20092;-56
2022/12/31 01:06:45;;;;;;;0.80;0.40;;;16.40;78.90;;;;;;5011855;28;20116;-51
2022/12/31 01:09:13;;;;;;;0.47;0.28;;;16.40;78.60;;;;;;5011583;28;20124;-53
2022/12/31 01:11:43;;;;;;;0.30;0.25;;;16.50;78.70;;;;;;5012638;28;20046;-52
2022/12/31 01:14:15;;;;;;;0.25;0.25;;;16.50;78.60;;;;;;5011486;28;20053;-55
2022/12/31 01:16:48;;;;;;;0.20;0.20;;;16.50;78.60;;;;;;5012671;28;20049;-54
2022/12/31 01:19:22;;;;;;;0.10;0.10;;;16.60;78.60;;;;;;5011603;28;20081;-54
2022/12/31 01:21:49;;;;;;;0.13;0.10;;;16.60;78.60;;;;;;5011493;28;20081;-55
2022/12/31 01:24:16;;;;;;;0.20;0.20;;;16.60;78.40;;;;;;5001674;28;20043;-57
2022/12/31 01:26:48;;;;;;;1.08;0.25;;;16.70;78.50;;;;;;5011025;28;20073;-57
2022/12/31 01:29:15;;;;;;;0.35;0.30;;;16.70;78.40;;;;;;5010971;28;20054;-53
2022/12/31 01:31:45;;;;;;;0.30;0.10;;;16.70;78.40;;;;;;5001462;28;20122;-50
2022/12/31 01:34:17;;;;;;;0.10;0.10;;;16.70;78.40;;;;;;5009436;28;20124;-53
2022/12/31 01:36:46;;;;;;;0.90;0.10;;;16.70;78.40;;;;;;5012443;28;20128;-55
2022/12/31 01:39:12;;;;;;;0.60;0.32;;;16.70;78.30;;;;;;5010212;28;20042;-55
2022/12/31 01:41:42;;;;;;;0.40;0.40;;;16.70;78.30;;;;;;5006368;28;20054;-57
2022/12/31 01:44:24;;;;;;;0.10;0.10;;;16.70;78.30;;;;;;5005036;28;20129;-54
2022/12/31 01:47:05;;;;;;;0.10;0.10;;;16.80;78.40;;;;;;5012389;28;20057;-52
2022/12/31 01:49:46;;;;;;;0.15;0.10;;;16.80;78.30;;;;;;4994037;28;20042;-55
2022/12/31 01:52:30;;;;;;;0.10;0.10;;;16.80;78.00;;;;;;5011893;28;20044;-58
2022/12/31 01:55:10;;;;;;;0.10;0.10;;;16.80;78.00;;;;;;5009803;28;20057;-55
2022/12/31 01:57:40;;;;;;;0.10;0.10;;;16.80;78.00;;;;;;5009030;28;20041;-55
2022/12/31 02:00:15;;;;;;;0.63;0.10;;;16.90;77.80;;;;;;5011121;28;20042;-55
2022/12/31 02:02:44;;;;;;;0.63;0.10;;;16.90;77.60;;;;;;5007808;28;20049;-55
2022/12/31 02:05:40;;;;;;;0.00;0.00;;;16.90;77.50;;;;;;5010269;28;20045;-55
2022/12/31 02:08:11;;;;;;;0.10;0.10;;;17.00;77.30;;;;;;5011647;28;20048;-54
2022/12/31 02:10:38;;;;;;;0.73;0.73;;;17.00;77.10;;;;;;5005980;28;20046;-52
2022/12/31 02:13:05;;;;;;;0.10;0.10;;;17.10;77.00;;;;;;5011655;28;20048;-55
2022/12/31 02:16:06;;;;;;;0.25;0.10;;;17.10;76.80;;;;;;5011164;28;20517;-52
2022/12/31 02:18:55;;;;;;;0.10;0.10;;;17.20;76.50;;;;;;5010947;28;20100;-55
2022/12/31 02:21:41;;;;;;;0.30;0.10;;;17.20;76.10;;;;;;5004606;28;20062;-56
2022/12/31 02:24:27;;;;;;;0.10;0.10;;;17.30;75.70;;;;;;5010585;28;20046;-54
2022/12/31 02:27:05;;;;;;;0.15;0.15;;;17.30;75.60;;;;;;5011109;28;20052;-52
2022/12/31 02:29:47;;;;;;;0.55;0.20;;;17.40;75.40;;;;;;5006806;28;20084;-54
2022/12/31 02:32:28;;;;;;;0.32;0.10;;;17.40;75.20;;;;;;5011175;28;20049;-55
2022/12/31 02:35:01;;;;;;;0.13;0.10;;;17.50;74.80;;;;;;5009950;28;20038;-52
2022/12/31 02:37:31;;;;;;;0.10;0.10;;;17.50;74.80;;;;;;5008640;28;20054;-55
2022/12/31 02:39:58;;;;;;;0.10;0.10;;;17.60;74.70;;;;;;5005651;28;20044;-54
2022/12/31 02:42:25;;;;;;;0.15;0.15;;;17.70;74.60;;;;;;5010939;28;20536;-55
2022/12/31 02:45:03;;;;;;;0.10;0.10;;;17.70;74.30;;;;;;5010423;28;20041;-53
2022/12/31 02:47:51;;;;;;;0.32;0.32;;;17.70;73.80;;;;;;5006862;28;20158;-56
2022/12/31 02:50:35;;;;;;;0.35;0.10;;;17.80;73.70;;;;;;5010266;28;20030;-52
2022/12/31 02:53:07;;;;;;;0.00;0.00;;;17.80;73.40;;;;;;5011212;28;20057;-53
2022/12/31 02:55:47;;;;;;;0.10;0.10;;;17.90;73.40;;;;;;5007286;28;20397;-57
2022/12/31 03:04:34;;;;;;;0.10;0.10;;;18.00;73.20;;;;;;5008914;28;20389;-51
2022/12/31 03:07:10;;;;;;;0.10;0.10;;;18.00;73.10;;;;;;5008040;28;20130;-54
2022/12/31 03:09:37;;;;;;;0.57;0.10;;;18.00;72.90;;;;;;5024555;28;20685;-52
2022/12/31 03:14:59;;;;;;;0.65;0.10;;;18.10;73.20;;;;;;5021692;28;20046;-52
2022/12/31 03:17:26;;;;;;;0.17;0.10;;;18.00;73.10;;;;;;5007826;28;20112;-54
2022/12/31 03:22:42;;;;;;;0.10;0.10;;;18.10;73.50;;;;;;5009064;28;20037;-57
2022/12/31 03:27:59;;;;;;;0.10;0.10;;;18.00;73.20;;;;;;5010329;28;20044;-56
2022/12/31 03:30:27;;;;;;;0.68;0.10;;;17.90;73.20;;;;;;5007680;28;20709;-53
2022/12/31 03:32:59;;;;;;;1.48;0.20;;;17.90;73.40;;;;;;5007975;28;20920;-55
2022/12/31 03:35:28;;;;;;;0.73;0.10;;;17.90;73.40;;;;;;5000765;28;20133;-53
2022/12/31 03:37:55;;;;;;;0.25;0.20;;;17.90;73.40;;;;;;5009567;28;20410;-58
2022/12/31 03:40:24;;;;;;;1.42;0.20;;;17.90;73.80;;;;;;5006361;28;20037;-54
2022/12/31 03:42:53;;;;;;;1.02;0.22;;;17.80;73.90;;;;;;5009757;28;20429;-52
2022/12/31 03:45:22;;;;;;;0.57;0.20;;;17.80;73.90;;;;;;5007089;28;20042;-54
2022/12/31 03:47:50;;;;;;;0.68;0.30;;;17.80;73.90;;;;;;5009851;28;20049;-52
2022/12/31 03:50:18;;;;;;;3.10;0.20;;;17.80;73.90;;;;;;5009599;28;20517;-55
2022/12/31 03:52:45;;;;;;;1.08;0.10;;;17.80;74.10;;;;;;5032935;23;20044;-49
2022/12/31 03:55:12;;;;;;;0.10;0.10;;;17.80;74.20;;;;;;5024616;28;20049;-53
2022/12/31 03:57:46;;;;;;;0.65;0.13;;;17.80;74.20;;;;;;5030005;28;20473;-51
2022/12/31 04:00:17;;;;;;;0.40;0.10;;;17.80;74.20;;;;;;5030246;28;20049;-53
2022/12/31 04:02:45;;;;;;;1.27;0.45;;;17.80;74.30;;;;;;5021796;28;20072;-49
2022/12/31 04:05:16;;;;;;;0.17;0.10;;;17.70;74.30;;;;;;5027552;28;20567;-53
2022/12/31 04:07:44;;;;;;;;;;;17.70;74.40;;;;;;5007122;28;20092;-52
2022/12/31 04:10:14;;;;;;;0.65;0.20;;;17.70;74.40;;;;;;5028989;28;19921;-49
2022/12/31 04:12:44;;;;;;;0.35;0.20;;;17.70;74.10;;;;;;5008312;28;20413;-52
2022/12/31 04:15:20;;;;;;;0.63;0.20;;;17.70;74.30;;;;;;5028569;28;20057;-49
2022/12/31 04:17:47;;;;;;;1.55;0.20;;;17.70;74.20;;;;;;5029519;28;20592;-49
2022/12/31 04:20:16;;;;;;;0.50;0.20;;;17.70;74.30;;;;;;5026578;28;20042;-51
2022/12/31 04:22:45;;;;;;;1.38;0.30;;;17.70;74.20;;;;;;5028394;28;20056;-49
2022/12/31 04:25:13;;;;;;;0.20;0.20;;;17.70;74.10;;;;;;5028900;28;20496;-49
2022/12/31 04:27:43;;;;;;;1.65;0.30;;;17.80;74.00;;;;;;5029470;28;20041;-51
2022/12/31 04:30:12;;;;;;;2.17;0.38;;;17.80;73.90;;;;;;5028638;28;20080;-52
2022/12/31 04:32:46;;;;;;;0.50;0.30;;;17.80;73.70;;;;;;5029127;28;20121;-51
2022/12/31 04:35:15;;;;;;;0.95;0.20;;;17.90;73.40;;;;;;5028733;28;20040;-53
2022/12/31 04:37:45;;;;;;;0.75;0.30;;;17.90;73.50;;;;;;5029190;28;20037;-49
2022/12/31 04:40:11;;;;;;;2.15;0.70;;;17.90;73.30;;;;;;5029046;28;20041;-50
2022/12/31 04:42:45;;;;;;;1.80;0.40;;;18.00;73.10;;;;;;5029495;28;20446;-54
2022/12/31 04:45:19;;;;;;;3.00;0.50;;;18.10;73.10;;;;;;5028940;28;20048;-52
2022/12/31 04:47:45;;;;;;;0.30;0.30;;;18.10;72.90;;;;;;5027576;28;20044;-50
2022/12/31 04:50:20;;;;;;;0.65;0.60;;;18.10;72.70;;;;;;5019082;28;20071;-54
2022/12/31 04:52:49;;;;;;;0.73;0.45;;;18.10;72.50;;;;;;5022657;28;20129;-54
2022/12/31 04:55:16;;;;;;;0.57;0.30;;;18.10;72.30;;;;;;5027243;28;21031;-54
2022/12/31 04:57:44;;;;;;;1.02;0.45;;;18.20;72.30;;;;;;5024794;28;20048;-54
2022/12/31 05:00:11;;;;;;;0.30;0.13;;;18.20;72.10;;;;;;5032438;28;20041;-53
2022/12/31 05:02:44;;;;;;;0.57;0.20;;;18.20;72.00;;;;;;5032200;28;20123;-54
2022/12/31 05:05:12;;;;;;;0.85;0.30;;;18.20;71.80;;;;;;5031082;28;20363;-53
2022/12/31 05:07:41;;;;;;;0.95;0.20;;;18.20;71.60;;;;;;5032775;28;20046;-53
2022/12/31 05:10:14;;;;;;;1.83;0.30;;;18.30;71.60;;;;;;5030405;28;20459;-53
2022/12/31 05:12:43;;;;;;;0.70;0.30;;;18.30;71.40;;;;;;5032373;28;20124;-53
2022/12/31 05:15:10;;;;;;;2.78;0.30;;;18.30;71.20;;;;;;5032025;28;20455;-54
2022/12/31 05:17:36;;;;;;;0.17;0.10;;;18.40;71.30;;;;;;5029999;28;20075;-53
2022/12/31 05:20:06;;;;;;;0.63;0.22;;;18.40;71.10;;;;;;5032022;28;20038;-54
2022/12/31 05:22:35;;;;;;;1.20;0.73;;;18.40;71.00;;;;;;5015250;28;20143;-51
2022/12/31 05:25:02;;;;;;;0.57;0.28;;;18.50;71.60;;;;;;5024719;28;20132;-52
2022/12/31 05:27:29;;;;;;;1.80;0.20;;;18.50;70.80;;;;;;5026926;28;20044;-50
2022/12/31 05:29:56;;;;;;;0.55;0.30;;;18.50;70.60;;;;;;5030019;28;20042;-53
2022/12/31 05:32:27;;;;;;;1.83;0.50;;;18.50;70.60;;;;;;5032084;28;20042;-51
2022/12/31 05:35:03;;;;;;;1.45;0.40;;;18.60;70.50;;;;;;5030488;28;20576;-51
2022/12/31 05:37:30;;;;;;;1.85;0.30;;;18.60;70.40;;;;;;5025776;28;20041;-51
2022/12/31 05:39:57;;;;;;;2.10;0.30;;;18.60;70.40;;;;;;5031223;28;20049;-52
2022/12/31 05:42:24;;;;;;;1.38;0.40;;;18.70;70.40;;;;;;5032203;28;20079;-53
2022/12/31 05:44:51;;;;;;;0.68;0.68;;;18.70;70.30;;;;;;5027216;28;20038;-51
2022/12/31 05:47:18;;;;;;;0.50;0.50;;;18.70;70.30;;;;;;5030645;28;20030;-51
2022/12/31 05:49:48;;;;;;;1.90;0.38;;;18.70;70.20;;;;;;5029413;28;20092;-52
2022/12/31 05:52:18;;;;;;;1.80;0.38;;;18.70;70.10;;;;;;5031668;28;20037;-53
2022/12/31 05:54:44;;;;;;;1.33;0.30;;;18.70;70.00;;;;;;5029990;28;20134;-53
2022/12/31 05:57:11;;;;;;;2.08;0.40;;;18.70;69.90;;;;;;5030375;28;20047;-52
2022/12/31 05:59:41;;;;;;;0.45;0.30;;;18.70;69.90;;;;;;5030287;28;20051;-54
2022/12/31 06:02:10;;;;;;;1.15;0.32;;;18.70;69.70;;;;;;5031705;28;20047;-52
2022/12/31 06:04:36;;;;;;;1.80;0.40;;;18.80;69.70;;;;;;5028528;28;20111;-52
2022/12/31 06:07:03;;;;;;;1.42;0.30;;;18.70;69.60;;;;;;5030825;28;20048;-53
2022/12/31 06:09:33;;;;;;;1.00;0.43;;;18.80;69.70;;;;;;5029770;28;20041;-52
2022/12/31 06:12:04;;;;;;;1.60;0.30;;;18.80;69.50;;;;;;5013919;28;20037;-52
2022/12/31 06:14:32;;;;;;;1.60;0.35;;;18.80;69.20;;;;;;5030138;28;20404;-53
2022/12/31 06:17:01;;;;;;;2.05;0.45;;;18.80;69.20;;;;;;5030971;28;20046;-50
2022/12/31 06:19:30;;;;;;;1.40;0.38;;;18.90;69.10;;;;;;5029872;28;20165;-53
2022/12/31 06:21:59;;;;;;;3.63;0.77;;;18.90;68.90;;;;;;5031420;28;20052;-52
2022/12/31 06:24:27;;;;;;;1.75;1.02;;;18.90;68.90;;;;;;5029004;28;20055;-51
2022/12/31 06:26:54;;;;;;;1.15;0.45;;;18.90;68.70;;;;;;5030802;28;20128;-53
2022/12/31 06:29:20;;;;;;;2.70;0.30;;;18.90;68.80;;;;;;5030167;28;20037;-55
2022/12/31 06:31:54;;;;;;;1.45;0.30;;;18.90;68.70;;;;;;5031140;28;20084;-53
2022/12/31 06:34:28;;;;;;;1.00;0.50;;;18.90;68.60;;;;;;5029820;28;20413;-54
2022/12/31 06:36:55;;;;;;;0.80;0.40;;;19.00;68.70;;;;;;5023740;28;20041;-54
2022/12/31 06:39:24;;;;;;;0.95;0.50;;;18.90;68.50;;;;;;5029441;28;20095;-53
2022/12/31 06:41:51;;;;;;;1.25;0.43;;;19.00;68.60;;;;;;5021895;28;20496;-55
2022/12/31 06:44:21;;;;;;;2.55;1.02;;;19.00;68.60;;;;;;5030197;28;20041;-53
2022/12/31 06:46:50;;;;;;;0.65;0.30;;;19.00;68.40;;;;;;5029665;28;20405;-54
2022/12/31 06:49:24;;;;;;;1.40;0.40;;;19.00;68.40;;;;;;5029791;28;20041;-54
2022/12/31 06:51:58;;;;;;;1.25;0.32;;;19.00;68.30;;;;;;5019801;28;20092;-50
2022/12/31 06:54:28;;;;;;;1.35;0.30;;;19.00;68.30;;;;;;5030092;28;20037;-54
2022/12/31 06:56:55;;;;;;;1.27;0.30;;;19.10;68.30;;;;;;5029724;28;20038;-54
2022/12/31 06:59:27;;;;;;;2.20;1.58;;;19.00;68.20;;;;;;5029065;28;20042;-54
2022/12/31 07:02:14;;;;;;;0.55;0.32;;;19.00;68.00;;;;;;5021197;28;20045;-51
2022/12/31 07:05:06;;;;;;;1.23;0.50;;;19.00;68.00;;;;;;5028314;28;20111;-54
2022/12/31 07:07:56;;;;;;;1.10;0.50;;;19.00;67.90;;;;;;5026340;28;20037;-53
2022/12/31 07:10:43;;;;;;;1.25;0.60;;;19.00;68.00;;;;;;5022100;28;20041;-54
2022/12/31 07:13:38;;;;;;;3.42;0.77;;;19.00;67.90;;;;;;5029078;28;20586;-53
2022/12/31 07:16:42;;;;;;;0.93;0.40;;;19.00;67.90;;;;;;5023607;28;20051;-52
2022/12/31 07:19:38;;;;;;;2.33;0.30;;;19.00;68.00;;;;;;5017220;28;20041;-53
2022/12/31 07:22:20;;;;;;;1.27;0.45;;;18.90;68.00;;;;;;5023285;28;20061;-50
2022/12/31 07:24:49;;;;;;;2.65;0.60;;;18.90;68.20;;;;;;5028374;28;20077;-52
2022/12/31 07:27:47;;;;;;;3.45;0.60;;;18.90;68.20;;;;;;5029404;28;20417;-53
2022/12/31 07:30:23;;;;;;;2.25;0.63;;;18.90;68.10;;;;;;5024306;28;20049;-54
2022/12/31 07:32:58;;;;;;;3.70;0.80;;;18.90;68.10;;;;;;5019198;28;20036;-53
2022/12/31 07:35:28;;;;;;;1.30;0.40;;;18.90;68.00;;;;;;5019248;28;20124;-52
2022/12/31 07:38:07;;;;;;;1.30;0.32;;;18.90;68.00;;;;;;5020859;28;20508;-54
2022/12/31 07:40:46;;;;;;;0.52;0.38;;;18.90;68.30;;;;;;5011061;28;20042;-54
2022/12/31 07:43:25;;;;;;;1.85;0.65;;;18.90;67.50;;;;;;5023101;28;20052;-55
2022/12/31 07:46:10;;;;;;;0.80;0.40;;;18.90;67.60;;;;;;5026484;28;20444;-53
2022/12/31 07:48:38;;;;;;;1.95;0.40;;;19.00;67.50;;;;;;5026887;28;20121;-53
2022/12/31 07:51:05;;;;;;;1.52;0.30;;;19.00;67.50;;;;;;5028207;28;20481;-51
2022/12/31 07:53:32;;;;;;;0.30;0.30;;;19.00;67.30;;;;;;5029539;28;20041;-53
2022/12/31 07:56:01;;;;;;;1.55;0.40;;;19.10;67.30;;;;;;5019448;28;20064;-53
2022/12/31 07:58:52;;;;;;;1.60;0.45;;;19.10;67.00;;;;;;5017147;28;20038;-54
2022/12/31 08:01:38;;;;;;;1.83;0.40;;;19.10;66.40;;;;;;5023695;28;20047;-51
2022/12/31 08:04:17;;;;;;;2.67;0.50;;;19.10;66.60;;;;;;5016979;28;20037;-53
2022/12/31 08:07:02;;;;;;;1.60;0.68;;;19.10;66.50;;;;;;5019743;28;20147;-53
2022/12/31 08:09:45;;;;;;;2.88;0.57;;;19.20;66.60;;;;;;5019545;28;20579;-53
2022/12/31 08:12:14;;;;;;;0.70;0.40;;;19.20;66.40;;;;;;5004844;28;20052;-51
2022/12/31 08:14:47;;;;;;;2.67;0.55;;;19.20;66.70;;;;;;5027368;28;20505;-53
2022/12/31 08:17:16;;;;;;;1.73;0.40;;;19.20;66.60;;;;;;5023738;28;20060;-54
2022/12/31 08:19:44;;;;;;;0.55;0.50;;;19.20;66.60;;;;;;5027132;28;20053;-54
2022/12/31 08:22:33;;;;;;;1.05;0.60;;;19.20;66.60;;;;;;5028440;28;20036;-54
2022/12/31 08:25:21;;;;;;;1.85;0.82;;;19.20;66.30;;;;;;5020929;28;20099;-53
2022/12/31 08:28:09;;;;;;;1.75;0.60;;;19.20;66.20;;;;;;5028203;28;20049;-54
2022/12/31 08:30:40;;;;;;;1.95;0.70;;;19.20;66.00;;;;;;5029845;28;20488;-54
2022/12/31 08:33:26;;;;;;;1.90;0.55;;;19.20;67.00;;;;;;5032296;28;20038;-54
2022/12/31 08:36:19;;;;;;;1.48;0.60;;;19.20;66.00;;;;;;5028935;28;20572;-54
2022/12/31 08:39:05;;;;;;;0.88;0.50;;;19.20;66.10;;;;;;5032207;28;20041;-53
2022/12/31 08:41:40;;;;;;;2.80;1.15;;;19.20;66.30;;;;;;5018544;28;20045;-54
2022/12/31 08:44:36;;;;;;;0.95;0.40;;;19.30;66.30;;;;;;5033512;28;20073;-50
2022/12/31 08:47:29;;;;;;;0.90;0.47;;;19.30;66.10;;;;;;5030964;28;20041;-54
2022/12/31 08:50:04;;;;;;;2.65;0.70;;;19.30;65.70;;;;;;5027159;28;20417;-54
2022/12/31 08:52:31;;;;;;;3.17;0.90;;;19.40;66.10;;;;;;5025377;28;20048;-53
2022/12/31 08:54:58;;;;;;;0.55;0.47;;;19.40;66.00;;;;;;5025341;28;20045;-54
2022/12/31 08:57:32;;;;;;;4.88;0.63;;;19.40;66.00;;;;;;5031235;28;20112;-55
2022/12/31 09:00:17;;;;;;;1.30;0.70;;;19.40;65.50;;;;;;5033009;28;20428;-54
2022/12/31 09:03:16;;;;;;;1.90;1.55;;;19.50;65.50;;;;;;5028937;28;20584;-53
2022/12/31 09:05:52;;;;;;;1.70;0.82;;;19.50;65.40;;;;;;5020675;28;20045;-54
2022/12/31 09:08:35;;;;;;;2.42;0.50;;;19.50;65.60;;;;;;5032635;28;20136;-54
2022/12/31 09:11:11;;;;;;;1.83;0.43;;;19.60;65.20;;;;;;5021394;28;20068;-52
2022/12/31 09:14:03;;;;;;;2.67;0.82;;;19.50;65.30;;;;;;5029766;28;20042;-54
2022/12/31 09:16:36;;;;;;;2.22;0.43;;;19.60;65.00;;;;;;5027978;28;20522;-54
2022/12/31 09:19:03;;;;;;;2.20;0.90;;;19.60;64.90;;;;;;5031344;28;20076;-52
2022/12/31 09:21:31;;;;;;;3.15;0.85;;;19.60;65.20;;;;;;5026810;28;20053;-51
2022/12/31 09:23:58;;;;;;;2.15;0.47;;;19.60;65.20;;;;;;5022496;28;20501;-53
2022/12/31 09:27:14;;;;;;;3.28;1.05;;;19.60;65.00;;;;;;5010108;28;20420;-53
2022/12/31 09:30:02;;;;;;;0.57;0.50;;;19.70;64.80;;;;;;5005432;28;20148;-52
2022/12/31 09:32:57;;;;;;;2.53;0.85;;;19.70;64.70;;;;;;5011595;28;20104;-51
2022/12/31 09:35:55;;;;;;;2.17;0.50;;;19.70;64.50;;;;;;5027715;28;20037;-54
2022/12/31 09:38:32;;;;;;;1.75;0.80;;;19.70;64.60;;;;;;5024805;28;20053;-52
2022/12/31 09:41:15;;;;;;;1.90;0.60;;;19.70;64.80;;;;;;5024470;28;20468;-52
2022/12/31 09:44:19;;;;;;;1.65;0.60;;;19.70;64.50;;;;;;5022173;28;20116;-53
2022/12/31 09:47:14;;;;;;;2.15;0.50;;;19.70;64.40;;;;;;5031552;28;20124;-53
2022/12/31 09:49:50;;;;;;;1.52;0.47;;;19.70;64.40;;;;;;5026316;28;20259;-53
2022/12/31 09:52:42;;;;;;;2.38;0.75;;;19.80;64.30;;;;;;5023845;28;20038;-50
2022/12/31 09:55:11;;;;;;;0.93;0.90;;;19.80;64.40;;;;;;5019770;28;20117;-53
2022/12/31 09:58:08;;;;;;;2.47;0.50;;;19.80;64.60;;;;;;5020193;28;20083;-51
2022/12/31 10:00:52;;;;;;;0.88;0.88;;;19.80;64.10;;;;;;5029232;28;20100;-54
2022/12/31 10:03:35;;;;;;;3.10;0.95;;;19.80;64.70;;;;;;5031895;28;20042;-54
2022/12/31 10:06:21;;;;;;;2.08;0.50;;;19.80;63.90;;;;;;5028414;28;20037;-53
2022/12/31 10:09:16;;;;;;;2.25;0.40;;;19.90;63.80;;;;;;5028823;28;20045;-51
2022/12/31 10:12:05;;;;;;;1.60;0.70;;;19.90;63.90;;;;;;5020115;28;20056;-54
2022/12/31 10:14:56;;;;;;;2.95;0.90;;;19.90;63.60;;;;;;5030904;28;20096;-55
2022/12/31 10:18:14;;;;;;;1.83;1.00;;;20.00;63.40;;;;;;5007357;28;20479;-55
2022/12/31 10:21:02;;;;;;;2.58;0.80;;;20.00;63.60;;;;;;5016731;28;20525;-54
2022/12/31 10:23:35;;;;;;;2.83;0.75;;;20.00;63.10;;;;;;5026114;28;20051;-55
2022/12/31 10:26:01;;;;;;;2.63;0.70;;;20.00;63.20;;;;;;5024109;28;20487;-55
2022/12/31 10:29:07;;;;;;;4.20;1.23;;;20.00;63.60;;;;;;5031052;28;20120;-54
2022/12/31 10:31:39;;;;;;;2.47;1.08;;;20.10;63.20;;;;;;5026330;28;20045;-54
2022/12/31 10:34:13;;;;;;;0.98;0.43;;;20.10;63.30;;;;;;5027151;28;20048;-53
2022/12/31 10:37:05;;;;;;;2.60;0.73;;;20.10;63.20;;;;;;5026669;28;20041;-55
2022/12/31 10:39:46;;;;;;;0.70;0.43;;;20.10;62.90;;;;;;5028483;28;20107;-55
2022/12/31 10:42:54;;;;;;;3.33;0.68;;;20.10;63.10;;;;;;5031425;28;20132;-54
2022/12/31 10:45:48;;;;;;;1.25;0.70;;;20.20;63.20;;;;;;4965588;28;20046;-54
2022/12/31 10:48:21;;;;;;;2.22;0.63;;;20.20;62.70;;;;;;5022509;28;20409;-55
2022/12/31 10:50:59;;;;;;;2.90;0.90;;;20.20;63.10;;;;;;5025801;28;20049;-53
2022/12/31 10:53:48;;;;;;;5.05;1.10;;;20.20;62.20;;;;;;5026941;28;20057;-53
2022/12/31 10:56:29;;;;;;;1.55;0.80;;;20.20;62.60;;;;;;5029828;28;20041;-50
2022/12/31 10:59:41;;;;;;;2.03;0.73;;;20.30;62.40;;;;;;5027458;28;20048;-55
2022/12/31 11:02:32;;;;;;;1.67;0.90;;;20.30;62.20;;;;;;4972341;28;20924;-53
2022/12/31 11:05:37;;;;;;;1.95;0.70;;;20.40;62.00;;;;;;5014981;28;20048;-52
2022/12/31 11:08:39;;;;;;;1.35;0.47;;;20.40;62.10;;;;;;5002639;28;20046;-54
2022/12/31 11:11:52;;;;;;;1.77;0.43;;;20.50;62.00;;;;;;5000039;28;20049;-53
2022/12/31 11:14:43;;;;;;;0.95;0.57;;;20.50;62.00;;;;;;4968416;28;20122;-54
2022/12/31 11:17:47;;;;;;;0.80;0.50;;;20.50;61.70;;;;;;5014432;28;20118;-51
2022/12/31 11:20:41;;;;;;;2.38;0.80;;;20.50;60.90;;;;;;5030603;28;20033;-54
2022/12/31 11:23:29;;;;;;;1.67;0.40;;;20.50;61.40;;;;;;5020254;28;20088;-51
2022/12/31 11:26:28;;;;;;;1.02;0.80;;;20.50;61.20;;;;;;5018068;28;20044;-54
2022/12/31 11:29:04;;;;;;;2.17;0.70;;;20.60;61.00;;;;;;5022193;28;20120;-53
2022/12/31 11:32:09;;;;;;;2.45;0.70;;;20.50;61.10;;;;;;5022397;28;20148;-53
2022/12/31 11:34:58;;;;;;;1.40;0.45;;;20.50;61.00;;;;;;5025957;28;20521;-54
2022/12/31 11:37:52;;;;;;;2.70;1.30;;;20.50;60.90;;;;;;5027841;28;20034;-51
2022/12/31 11:40:43;;;;;;;3.95;1.10;;;20.50;60.80;;;;;;5025308;28;20073;-54
2022/12/31 11:43:18;;;;;;;1.98;0.55;;;20.50;60.80;;;;;;5033470;28;20081;-53
2022/12/31 11:46:15;;;;;;;4.30;1.35;;;20.40;61.00;;;;;;5026995;28;20121;-50
2022/12/31 11:49:07;;;;;;;2.15;0.60;;;20.40;61.10;;;;;;5029031;28;20535;-54
2022/12/31 11:51:52;;;;;;;3.13;0.73;;;20.40;61.10;;;;;;5023462;28;20523;-53
2022/12/31 11:54:41;;;;;;;2.38;0.85;;;20.40;60.80;;;;;;5025881;28;20052;-52
2022/12/31 11:57:34;;;;;;;1.85;0.73;;;20.30;61.00;;;;;;5029930;28;20548;-52
2022/12/31 12:00:20;;;;;;;2.13;1.00;;;20.30;61.00;;;;;;5026042;28;20144;-54
2022/12/31 12:02:59;;;;;;;2.13;0.77;;;20.20;61.00;;;;;;5025473;28;20044;-52
2022/12/31 12:05:27;;;;;;;2.95;1.05;;;20.20;61.50;;;;;;5028574;28;20116;-50
2022/12/31 12:07:54;;;;;;;2.53;1.30;;;20.20;62.10;;;;;;5033077;28;20033;-54
2022/12/31 12:10:26;;;;;;;2.22;1.08;;;20.20;62.50;;;;;;5033336;28;20451;-55
2022/12/31 12:13:25;;;;;;;2.50;1.08;;;20.10;62.80;;;;;;5032105;28;20042;-50
2022/12/31 12:16:04;;;;;;;3.38;1.25;;;20.10;63.00;;;;;;5029883;28;20384;-52
2022/12/31 12:18:46;;;;;;;3.10;0.90;;;20.00;63.10;;;;;;5028365;28;20447;-51
2022/12/31 12:21:19;;;;;;;2.95;1.23;;;20.00;63.10;;;;;;5031898;28;20120;-52
2022/12/31 12:23:56;;;;;;;1.92;0.90;;;19.90;63.00;;;;;;5030402;28;20682;-50
2022/12/31 12:26:36;;;;;;;5.55;1.15;;;19.90;63.00;;;;;;5029979;28;20047;-51
2022/12/31 12:29:08;;;;;;;2.58;0.98;;;19.80;63.10;;;;;;5029528;28;20069;-54
2022/12/31 12:31:36;;;;;;;1.50;0.98;;;19.80;63.60;;;;;;5032090;28;20140;-54
2022/12/31 12:34:04;;;;;;;1.33;0.80;;;19.80;63.50;;;;;;5033720;28;20409;-52
2022/12/31 12:36:32;;;;;;;1.27;1.08;;;19.80;63.20;;;;;;5032426;28;20509;-53
2022/12/31 12:39:04;;;;;;;1.45;0.77;;;19.80;63.80;;;;;;5027962;28;20095;-51
2022/12/31 12:41:32;;;;;;;1.08;0.85;;;19.80;63.10;;;;;;5020086;28;20481;-50
2022/12/31 12:44:04;;;;;;;1.25;0.98;;;19.80;63.10;;;;;;5033420;28;20048;-50
2022/12/31 12:46:33;;;;;;;2.35;0.98;;;19.90;62.80;;;;;;5032355;28;20076;-51
2022/12/31 12:49:02;;;;;;;6.35;1.88;;;19.90;62.90;;;;;;5018285;28;20052;-54
2022/12/31 12:51:58;;;;;;;2.95;1.17;;;19.90;62.80;;;;;;5023915;28;20566;-53
2022/12/31 12:54:35;;;;;;;1.13;0.98;;;20.00;62.20;;;;;;5006359;28;20738;-53
2022/12/31 12:57:27;;;;;;;3.05;1.13;;;20.00;61.90;;;;;;5026765;28;20045;-52
2022/12/31 13:00:08;;;;;;;1.30;1.08;;;20.00;62.40;;;;;;5029332;28;20196;-50
2022/12/31 13:02:47;;;;;;;1.13;0.93;;;20.00;62.70;;;;;;5026340;28;20049;-48
2022/12/31 13:05:41;;;;;;;2.00;0.60;;;20.00;62.80;;;;;;5028096;28;20072;-46
2022/12/31 13:08:25;;;;;;;2.35;0.90;;;20.00;63.20;;;;;;5029961;28;20049;-47
2022/12/31 13:11:16;;;;;;;2.38;0.98;;;20.00;62.70;;;;;;5028252;28;20048;-46
2022/12/31 13:13:54;;;;;;;1.75;0.88;;;20.00;62.70;;;;;;5030423;28;20048;-47
2022/12/31 13:16:55;;;;;;;2.17;0.82;;;20.00;62.40;;;;;;5019117;28;20048;-48
2022/12/31 13:19:48;;;;;;;2.80;1.85;;;19.90;61.90;;;;;;5027028;28;20072;-47
2022/12/31 13:22:36;;;;;;;;;;;19.90;61.90;;;;;;5027080;28;20041;-47
2022/12/31 13:25:26;;;;;;;4.25;0.90;;;20.00;62.60;;;;;;5026479;28;19924;-49
2022/12/31 13:27:57;;;;;;;2.22;1.10;;;20.00;61.70;;;;;;5028084;28;20064;-48
2022/12/31 13:30:36;;;;;;;1.85;0.93;;;19.90;61.60;;;;;;5032889;28;20036;-49
2022/12/31 13:33:12;;;;;;;4.47;1.15;;;19.90;60.90;;;;;;5032253;28;20497;-48
2022/12/31 13:35:45;;;;;;;3.60;1.10;;;19.90;60.90;;;;;;5031427;28;20489;-47
2022/12/31 13:38:14;;;;;;;2.80;1.30;;;20.00;60.90;;;;;;5023072;28;20557;-49
2022/12/31 13:40:53;;;;;;;3.08;1.15;;;20.00;60.80;;;;;;5030718;28;20100;-49
2022/12/31 13:43:37;;;;;;;3.88;1.40;;;20.00;60.30;;;;;;5026800;28;20102;-50
2022/12/31 13:46:17;;;;;;;5.88;1.30;;;20.00;60.10;;;;;;5027179;28;20415;-49
2022/12/31 13:48:54;;;;;;;1.92;0.80;;;20.00;60.10;;;;;;5032741;28;20050;-49
2022/12/31 13:51:33;;;;;;;1.55;1.00;;;20.00;60.00;;;;;;5021620;28;20041;-45
2022/12/31 13:54:08;;;;;;;2.75;0.82;;;20.00;60.10;;;;;;5011037;28;20564;-50